Frimley, United Kingdom
Current Conditions -  °F | °C
As of 12:20 PM on Sunday 23 Nov 2014 (Local Time) from EGLF Reporting Station
Moderate Rain Moderate Rain  
Wind Chill: 39°   Ceiling: 3000
Heat Index: 45°   Visibility: 5mi
Dew Point: 45°   Wind: 10mph
Humidity: 100%   Direction: 350°N
Pressure: 30.03"   Gusts: NA
Location:  51.31°N, 0.74°W
Report Text: EGLF 231220Z 35009KT 8000 RA FEW007 BKN030 07/07 Q1017
Loading
Personal Weather Stations






























Interactive Weather Map New forecast layout! Learn more

10-Day Weather Forecast

Advertisements
Track Severe Weather on mobile